createdAt,value
2023-01-05T00:01:32.775Z,4.1
2023-01-05T00:06:41.867Z,4.1
2023-01-05T00:11:49.334Z,4.1
2023-01-05T00:16:56.201Z,4.1
2023-01-05T00:22:18.482Z,4
2023-01-05T00:27:32.900Z,4.1
2023-01-05T00:32:55.447Z,4.1
2023-01-05T00:37:46.230Z,4.1
2023-01-05T00:42:38.739Z,4.2
2023-01-05T00:47:30.507Z,4.3
2023-01-05T00:52:37.547Z,4.3
2023-01-05T00:57:29.474Z,4.4
2023-01-05T01:02:22.008Z,4.4
2023-01-05T01:07:29.350Z,4.4
2023-01-05T01:12:35.494Z,4.5
2023-01-05T01:17:43.545Z,4.6
2023-01-05T01:23:04.920Z,4.6
2023-01-05T01:28:27.245Z,4.6
2023-01-05T01:33:19.599Z,4.6
2023-01-05T01:38:10.080Z,4.6
2023-01-05T01:43:16.915Z,4.6
2023-01-05T01:48:24.557Z,4.6
2023-01-05T01:53:47.186Z,4.7
2023-01-05T01:58:54.048Z,4.7
2023-01-05T02:04:18.242Z,4.7
2023-01-05T02:09:09.975Z,4.7
2023-01-05T02:13:48.798Z,4.7
2023-01-05T02:18:40.482Z,4.6
2023-01-05T02:23:38.200Z,4.7
2023-01-05T02:28:45.305Z,4.7
2023-01-05T02:33:36.698Z,4.7
2023-01-05T02:38:48.153Z,4.7
2023-01-05T02:43:24.961Z,4.6
2023-01-05T02:48:00.694Z,4.6
2023-01-05T02:52:52.247Z,4.6
2023-01-05T02:57:43.041Z,4.6
2023-01-05T03:02:51.938Z,4.6
2023-01-05T03:07:28.313Z,4.6
2023-01-05T03:12:03.562Z,4.6
2023-01-05T03:16:39.037Z,4.6
2023-01-05T03:21:46.367Z,4.6
2023-01-05T03:26:37.772Z,4.5
2023-01-05T03:31:44.368Z,4.5
2023-01-05T03:36:52.111Z,4.4
2023-01-05T03:41:46.765Z,4.4
2023-01-05T03:46:37.289Z,4.4
2023-01-05T03:51:28.422Z,4.4
2023-01-05T03:56:05.052Z,4.3
2023-01-05T04:00:55.994Z,4.3
2023-01-05T04:05:52.919Z,4.3
2023-01-05T04:10:59.807Z,4.1
2023-01-05T04:15:51.786Z,4
2023-01-05T04:20:43.378Z,3.9
2023-01-05T04:25:54.961Z,3.8
2023-01-05T04:31:02.397Z,3.6
2023-01-05T04:36:09.502Z,3.4
2023-01-05T04:41:16.524Z,3.2
2023-01-05T04:46:24.323Z,2.9
2023-01-05T04:51:31.702Z,2.8
2023-01-05T04:56:23.229Z,2.6
2023-01-05T05:01:35.564Z,2.5
2023-01-05T05:06:28.815Z,2.4
2023-01-05T05:11:05.285Z,2.3
2023-01-05T05:16:12.326Z,2.2
2023-01-05T05:20:48.944Z,2.2
2023-01-05T05:25:25.270Z,2.3
2023-01-05T05:30:17.318Z,2.3
2023-01-05T05:35:24.546Z,2.3
2023-01-05T05:40:18.460Z,2.3
2023-01-05T05:44:54.035Z,2.3
2023-01-05T05:49:52.234Z,2.3
2023-01-05T05:54:42.790Z,2.3
2023-01-05T05:59:57.911Z,2.3
2023-01-05T06:05:06.323Z,2.3
2023-01-05T06:10:28.970Z,2.3
2023-01-05T06:15:52.645Z,2.3
2023-01-05T06:21:01.830Z,2.3
2023-01-05T06:26:09.240Z,2.4
2023-01-05T06:31:31.928Z,2.3
2023-01-05T06:36:57.904Z,2.4
2023-01-05T06:42:23.651Z,2.6
2023-01-05T06:47:46.885Z,3.1
2023-01-05T06:53:12.046Z,4.4
2023-01-05T06:58:35.490Z,6.2
2023-01-05T07:03:58.412Z,8.8
2023-01-05T07:09:25.770Z,12.1
2023-01-05T07:14:51.692Z,15.6
2023-01-05T07:20:17.741Z,18.9
2023-01-05T07:25:40.868Z,22.1
2023-01-05T07:31:09.150Z,25
2023-01-05T07:36:40.893Z,27.5
2023-01-05T07:42:03.702Z,29.9
2023-01-05T07:47:10.848Z,34.4
2023-01-05T07:52:25.276Z,32.6
2023-01-05T07:57:48.292Z,28.4
2023-01-05T08:03:12.064Z,31.8
2023-01-05T08:08:24.281Z,37.9
2023-01-05T08:13:47.538Z,35.9
2023-01-05T08:19:14.619Z,31.3
2023-01-05T08:24:39.535Z,33.3
2023-01-05T08:30:04.200Z,31.9
2023-01-05T08:35:13.306Z,32.4
2023-01-05T08:40:35.731Z,33.1
2023-01-05T08:46:02.911Z,34.7
2023-01-05T08:51:29.105Z,36
2023-01-05T08:56:56.190Z,36.9
2023-01-05T09:02:25.363Z,38.1
2023-01-05T09:07:48.888Z,39.1
2023-01-05T09:13:11.975Z,40.3
2023-01-05T09:19:04.665Z,41.6
2023-01-05T09:24:11.922Z,42.6
2023-01-05T09:29:19.462Z,43.1
2023-01-05T09:34:50.073Z,43.1
2023-01-05T09:40:16.049Z,42.8
2023-01-05T09:45:39.937Z,43
2023-01-05T09:51:04.144Z,43.4
2023-01-05T09:56:58.794Z,43.8
2023-01-05T10:02:32.169Z,43.4
2023-01-05T10:08:36.322Z,44.5
2023-01-05T10:13:59.435Z,43.9
2023-01-05T10:20:01.463Z,43.2
2023-01-05T10:25:30.806Z,43
2023-01-05T10:31:36.642Z,43.6
2023-01-05T10:38:53.759Z,45.3
2023-01-05T10:44:17.410Z,47
2023-01-05T10:50:06.241Z,47.7
2023-01-05T10:55:34.847Z,46.8
2023-01-05T11:01:03.802Z,47.9
2023-01-05T11:07:12.383Z,49
2023-01-05T11:12:36.217Z,48
2023-01-05T11:18:04.220Z,47.1
2023-01-05T11:23:30.783Z,48.3
2023-01-05T11:29:00.551Z,47.8
2023-01-05T11:33:58.887Z,46.1
2023-01-05T11:39:27.903Z,46
2023-01-05T11:44:55.088Z,43.3
2023-01-05T11:50:26.696Z,41.4
2023-01-05T11:55:18.819Z,46
2023-01-05T12:00:42.994Z,52.3
2023-01-05T12:05:52.119Z,44.6
2023-01-05T12:11:04.405Z,39
2023-01-05T12:16:36.017Z,40.8
2023-01-05T12:21:44.141Z,40.4
2023-01-05T12:26:53.790Z,37.4
2023-01-05T12:36:23.112Z,35.6
2023-01-05T12:41:36.252Z,34
2023-01-05T12:47:01.476Z,33
2023-01-05T12:52:09.939Z,32.4
2023-01-05T12:57:02.074Z,32.3
2023-01-05T13:02:25.609Z,35.5
2023-01-05T13:07:31.539Z,38.4
2023-01-05T13:12:26.651Z,40.7
2023-01-05T13:17:38.638Z,41.7
2023-01-05T13:22:30.167Z,42.1
2023-01-05T13:27:53.595Z,40.9
2023-01-05T13:33:06.844Z,39.5
2023-01-05T13:38:29.766Z,38.5
2023-01-05T13:43:52.712Z,38.3
2023-01-05T13:49:38.896Z,37.9
2023-01-05T13:55:09.654Z,37
2023-01-05T14:01:04.025Z,35.4
2023-01-05T14:06:28.179Z,33.9
2023-01-05T14:11:50.940Z,32.8
2023-01-05T14:16:59.007Z,31.7
2023-01-05T14:22:25.355Z,30.3
2023-01-05T14:27:35.263Z,28.7
2023-01-05T14:32:58.865Z,27
2023-01-05T14:38:06.793Z,25.1
2023-01-05T14:43:20.051Z,23.5
2023-01-05T14:48:27.997Z,21.9
2023-01-05T14:53:51.669Z,20.1
2023-01-05T14:59:39.986Z,18.3
2023-01-05T15:05:06.692Z,16.9
2023-01-05T15:10:30.900Z,15.7
2023-01-05T15:15:59.597Z,14.6
2023-01-05T15:21:07.816Z,13.6
2023-01-05T15:26:50.072Z,12.8
2023-01-05T15:31:57.702Z,12.2
2023-01-05T15:37:05.444Z,11.6
2023-01-05T15:42:14.303Z,11.1
2023-01-05T15:47:21.518Z,10.6
2023-01-05T15:52:29.781Z,10.1
2023-01-05T15:57:37.406Z,9.8
2023-01-05T16:02:45.592Z,9.3
2023-01-05T16:07:54.701Z,8.9
2023-01-05T16:13:18.499Z,8.6
2023-01-05T16:18:39.275Z,8.2
2023-01-05T16:23:50.967Z,7.9
2023-01-05T16:28:59.261Z,7.6
2023-01-05T16:34:22.652Z,7.3
2023-01-05T16:39:30.794Z,7.1
2023-01-05T16:44:23.759Z,7
2023-01-05T16:49:32.297Z,6.9
2023-01-05T16:55:02.779Z,6.8
2023-01-05T17:00:19.293Z,6.6
2023-01-05T17:05:26.504Z,6.6
2023-01-05T17:10:33.507Z,6.5
2023-01-05T17:15:42.160Z,6.4
2023-01-05T17:20:51.019Z,6.4
2023-01-05T17:26:14.765Z,6.3
2023-01-05T17:31:23.287Z,6.3
2023-01-05T17:41:25.069Z,5.9
2023-01-05T17:46:02.270Z,5.9
2023-01-05T17:50:54.370Z,6
2023-01-05T17:56:19.941Z,6.2
2023-01-05T18:07:09.825Z,6.4
2023-01-05T18:12:34.212Z,6.5
2023-01-05T18:17:58.148Z,6.6
2023-01-05T18:23:21.607Z,6.7
2023-01-05T18:28:45.201Z,6.8
2023-01-05T18:34:09.529Z,6.8
2023-01-05T18:39:42.865Z,6.9
2023-01-05T18:45:13.636Z,6.8
2023-01-05T18:50:33.582Z,6.7
2023-01-05T18:55:58.562Z,6.6
2023-01-05T19:01:06.997Z,6.4
2023-01-05T19:06:33.461Z,6.4
2023-01-05T19:11:56.515Z,6.2
2023-01-05T19:17:20.546Z,6.1
2023-01-05T19:22:28.818Z,5.9
2023-01-05T19:27:38.298Z,5.8
2023-01-05T19:33:02.015Z,5.7
2023-01-05T19:38:25.574Z,5.6
2023-01-05T19:43:50.950Z,5.5
2023-01-05T19:49:17.801Z,5.4
2023-01-05T19:54:25.919Z,5.3
2023-01-05T19:59:51.231Z,5.3
2023-01-05T20:04:59.568Z,5.3
2023-01-05T20:10:08.086Z,5.3
2023-01-05T20:15:42.046Z,5.3
2023-01-05T20:20:33.436Z,5.3
2023-01-05T20:25:42.945Z,5.1
2023-01-05T20:30:51.056Z,5.1
2023-01-05T20:36:14.018Z,4.9
2023-01-05T20:41:38.571Z,4.9
2023-01-05T20:47:08.664Z,4.8
2023-01-05T20:52:38.134Z,4.6
2023-01-05T20:58:01.179Z,4.4
2023-01-05T21:03:53.323Z,4.3
2023-01-05T21:08:47.745Z,4.1
2023-01-05T21:14:28.939Z,3.8
2023-01-05T21:19:37.791Z,3.7
2023-01-05T21:24:59.899Z,3.6
2023-01-05T21:30:42.193Z,3.4
2023-01-05T21:35:50.396Z,3.4
2023-01-05T21:41:39.295Z,3.4
2023-01-05T21:46:46.805Z,3.3
2023-01-05T21:51:56.911Z,3.2
2023-01-05T21:57:04.255Z,3.1
2023-01-05T22:02:12.021Z,3.1
2023-01-05T22:07:20.318Z,3.3
2023-01-05T22:12:28.281Z,3.3
2023-01-05T22:17:52.204Z,3.4
2023-01-05T22:23:15.462Z,3.4
2023-01-05T22:28:22.706Z,3.4
2023-01-05T22:33:32.187Z,3.5
2023-01-05T22:38:39.878Z,3.5
2023-01-05T22:43:31.675Z,3.5
2023-01-05T22:48:38.881Z,3.4
2023-01-05T22:54:02.290Z,3.4
2023-01-05T22:59:09.142Z,3.4
2023-01-05T23:04:19.426Z,3.4
2023-01-05T23:08:40.437Z,3.4
2023-01-05T23:13:46.937Z,3.3
2023-01-05T23:19:09.912Z,3.3
2023-01-05T23:24:17.593Z,3.2
2023-01-05T23:29:26.675Z,3.1
2023-01-05T23:34:34.314Z,3.1
2023-01-05T23:39:57.347Z,3.2
2023-01-05T23:45:05.646Z,3.5
2023-01-05T23:49:57.097Z,3.8
2023-01-05T23:55:21.496Z,3.9
